Time,TemperatureF,DewpointF,PressureIn,WindDirection,WindDirectionDegrees,WindSpeedMPH,WindSpeedGustMPH,Humidity,HourlyPrecipIn,Conditions,Clouds,dailyrainin,SoftwareType,DateUTC
2013-10-08 00:00:00,39.8,36.2,30.06,North,0,0.0,0.0,87,0.00,,,0.00,WUHU216HW,2013-10-08 05:00:00,
2013-10-08 00:05:00,39.6,36.0,30.06,North,0,0.0,0.0,87,0.00,,,0.00,WUHU216HW,2013-10-08 05:05:00,
2013-10-08 00:10:00,39.4,35.8,30.06,North,0,0.0,0.0,87,0.00,,,0.00,WUHU216HW,2013-10-08 05:10:00,
2013-10-08 00:15:00,39.4,35.8,30.06,North,0,0.0,0.0,87,0.00,,,0.00,WUHU216HW,2013-10-08 05:15:00,
2013-10-08 00:20:00,39.4,35.8,30.06,North,0,0.0,0.0,87,0.00,,,0.00,WUHU216HW,2013-10-08 05:20:00,
2013-10-08 00:25:00,39.2,35.6,30.06,North,0,0.0,0.0,87,0.00,,,0.00,WUHU216HW,2013-10-08 05:25:00,
2013-10-08 00:30:00,39.2,35.6,30.06,North,0,0.0,0.0,87,0.00,,,0.00,WUHU216HW,2013-10-08 05:30:00,
2013-10-08 00:35:00,39.2,35.6,30.06,North,0,0.0,0.0,87,0.00,,,0.00,WUHU216HW,2013-10-08 05:35:00,
2013-10-08 00:40:00,39.2,35.6,30.06,North,0,0.0,0.0,87,0.00,,,0.00,WUHU216HW,2013-10-08 05:40:00,
2013-10-08 00:45:00,39.1,35.5,30.06,North,0,0.0,0.0,87,0.00,,,0.00,WUHU216HW,2013-10-08 05:45:00,
2013-10-08 00:50:00,38.9,35.3,30.06,North,0,0.0,0.0,87,0.00,,,0.00,WUHU216HW,2013-10-08 05:50:00,
2013-10-08 00:55:00,39.1,35.5,30.06,North,0,0.0,0.0,87,0.00,,,0.00,WUHU216HW,2013-10-08 05:55:00,
2013-10-08 01:00:00,38.9,35.3,30.06,North,0,0.0,0.0,87,0.00,,,0.00,WUHU216HW,2013-10-08 06:00:00,
2013-10-08 01:05:00,38.9,35.3,30.06,North,0,0.0,0.0,87,0.00,,,0.00,WUHU216HW,2013-10-08 06:05:00,
2013-10-08 01:10:00,38.7,35.1,30.06,North,0,0.0,0.0,87,0.00,,,0.00,WUHU216HW,2013-10-08 06:10:00,
2013-10-08 01:15:00,38.5,34.9,30.06,North,0,0.0,0.0,87,0.00,,,0.00,WUHU216HW,2013-10-08 06:15:00,
2013-10-08 01:20:00,38.2,34.6,30.06,North,0,0.0,0.0,87,0.00,,,0.00,WUHU216HW,2013-10-08 06:20:00,
2013-10-08 01:25:00,38.0,34.8,30.07,North,0,0.0,0.0,88,0.00,,,0.00,WUHU216HW,2013-10-08 06:25:00,
2013-10-08 01:30:00,38.0,34.4,30.07,North,0,0.0,0.0,87,0.00,,,0.00,WUHU216HW,2013-10-08 06:30:00,
2013-10-08 01:35:00,38.2,34.9,30.07,North,0,0.0,0.0,88,0.00,,,0.00,WUHU216HW,2013-10-08 06:35:00,
2013-10-08 01:40:00,38.0,34.8,30.07,North,0,0.0,0.0,88,0.00,,,0.00,WUHU216HW,2013-10-08 06:40:00,
2013-10-08 01:44:00,37.6,34.4,30.07,North,0,0.0,0.0,88,0.00,,,0.00,WUHU216HW,2013-10-08 06:44:00,
2013-10-08 01:49:00,37.8,34.6,30.07,North,0,0.0,0.0,88,0.00,,,0.00,WUHU216HW,2013-10-08 06:49:00,
2013-10-08 01:54:00,37.8,34.6,30.07,North,0,0.0,0.0,88,0.00,,,0.00,WUHU216HW,2013-10-08 06:54:00,
2013-10-08 01:59:00,37.6,34.0,30.07,North,0,0.0,0.0,87,0.00,,,0.00,WUHU216HW,2013-10-08 06:59:00,
2013-10-08 02:04:00,37.6,34.0,30.07,North,0,0.0,0.0,87,0.00,,,0.00,WUHU216HW,2013-10-08 07:04:00,
2013-10-08 02:09:00,37.6,34.0,30.07,North,0,0.0,0.0,87,0.00,,,0.00,WUHU216HW,2013-10-08 07:09:00,
2013-10-08 02:14:00,37.6,34.0,30.07,North,0,0.0,0.0,87,0.00,,,0.00,WUHU216HW,2013-10-08 07:14:00,
2013-10-08 02:19:00,37.6,34.4,30.06,North,0,0.0,0.0,88,0.00,,,0.00,WUHU216HW,2013-10-08 07:19:00,
2013-10-08 02:24:00,37.8,34.6,30.06,North,0,0.0,0.0,88,0.00,,,0.00,WUHU216HW,2013-10-08 07:24:00,
2013-10-08 02:29:00,37.8,34.6,30.07,North,0,0.0,0.0,88,0.00,,,0.00,WUHU216HW,2013-10-08 07:29:00,
2013-10-08 02:34:00,38.2,35.2,30.07,North,0,0.0,0.0,89,0.00,,,0.00,WUHU216HW,2013-10-08 07:34:00,
2013-10-08 02:39:00,38.2,34.9,30.07,North,0,0.0,0.0,88,0.00,,,0.00,WUHU216HW,2013-10-08 07:39:00,
2013-10-08 02:44:00,38.2,34.9,30.07,North,0,0.0,0.0,88,0.00,,,0.00,WUHU216HW,2013-10-08 07:44:00,
2013-10-08 02:49:00,38.2,34.9,30.07,North,0,0.0,0.0,88,0.00,,,0.00,WUHU216HW,2013-10-08 07:49:00,
2013-10-08 02:54:00,38.0,34.8,30.07,North,0,0.0,0.0,88,0.00,,,0.00,WUHU216HW,2013-10-08 07:54:00,
2013-10-08 02:59:00,37.6,34.4,30.07,North,0,0.0,0.0,88,0.00,,,0.00,WUHU216HW,2013-10-08 07:59:00,
2013-10-08 03:04:00,37.4,33.8,30.07,North,0,0.0,0.0,87,0.00,,,0.00,WUHU216HW,2013-10-08 08:04:00,
2013-10-08 03:09:00,37.3,33.7,30.07,North,0,0.0,0.0,87,0.00,,,0.00,WUHU216HW,2013-10-08 08:09:00,
2013-10-08 03:14:00,37.1,33.9,30.07,North,0,0.0,0.0,88,0.00,,,0.00,WUHU216HW,2013-10-08 08:14:00,
2013-10-08 03:19:00,36.9,33.7,30.07,North,0,0.0,0.0,88,0.00,,,0.00,WUHU216HW,2013-10-08 08:19:00,
2013-10-08 03:24:00,37.1,33.9,30.07,North,0,0.0,0.0,88,0.00,,,0.00,WUHU216HW,2013-10-08 08:24:00,
2013-10-08 03:29:00,36.9,33.3,30.08,North,0,0.0,0.0,87,0.00,,,0.00,WUHU216HW,2013-10-08 08:29:00,
2013-10-08 03:34:00,36.9,33.3,30.07,North,0,0.0,0.0,87,0.00,,,0.00,WUHU216HW,2013-10-08 08:34:00,
2013-10-08 03:39:00,37.1,33.9,30.07,North,0,0.0,0.0,88,0.00,,,0.00,WUHU216HW,2013-10-08 08:39:00,
2013-10-08 03:44:00,37.1,33.9,30.07,North,0,0.0,0.0,88,0.00,,,0.00,WUHU216HW,2013-10-08 08:44:00,
2013-10-08 03:49:00,36.9,33.7,30.08,North,0,0.0,0.0,88,0.00,,,0.00,WUHU216HW,2013-10-08 08:49:00,
2013-10-08 03:54:00,37.3,34.0,30.08,North,0,0.0,0.0,88,0.00,,,0.00,WUHU216HW,2013-10-08 08:54:00,
2013-10-08 03:59:00,37.3,34.0,30.09,North,0,0.0,0.0,88,0.00,,,0.00,WUHU216HW,2013-10-08 08:59:00,
2013-10-08 04:04:00,37.4,34.5,30.08,North,0,0.0,0.0,89,0.00,,,0.00,WUHU216HW,2013-10-08 09:04:00,
2013-10-08 04:09:00,37.4,34.2,30.09,North,0,0.0,0.0,88,0.00,,,0.00,WUHU216HW,2013-10-08 09:09:00,
2013-10-08 04:14:00,37.1,33.9,30.09,North,0,0.0,0.0,88,0.00,,,0.00,WUHU216HW,2013-10-08 09:14:00,
2013-10-08 04:19:00,36.9,33.7,30.09,North,0,0.0,0.0,88,0.00,,,0.00,WUHU216HW,2013-10-08 09:19:00,
2013-10-08 04:24:00,36.9,33.7,30.09,North,0,0.0,0.0,88,0.00,,,0.00,WUHU216HW,2013-10-08 09:24:00,
2013-10-08 04:29:00,36.5,33.3,30.09,North,0,0.0,0.0,88,0.00,,,0.00,WUHU216HW,2013-10-08 09:29:00,
2013-10-08 04:34:00,36.4,33.1,30.09,North,0,0.0,0.0,88,0.00,,,0.00,WUHU216HW,2013-10-08 09:34:00,
2013-10-08 04:39:00,36.4,33.1,30.09,North,0,0.0,0.0,88,0.00,,,0.00,WUHU216HW,2013-10-08 09:39:00,
2013-10-08 04:44:00,36.4,33.1,30.09,North,0,0.0,0.0,88,0.00,,,0.00,WUHU216HW,2013-10-08 09:44:00,
2013-10-08 04:49:00,36.5,33.3,30.09,North,0,0.0,0.0,88,0.00,,,0.00,WUHU216HW,2013-10-08 09:49:00,
2013-10-08 04:54:00,36.5,33.3,30.09,North,0,0.0,0.0,88,0.00,,,0.00,WUHU216HW,2013-10-08 09:54:00,
2013-10-08 04:59:00,36.4,33.1,30.09,North,0,0.0,0.0,88,0.00,,,0.00,WUHU216HW,2013-10-08 09:59:00,
2013-10-08 05:04:00,36.4,33.1,30.09,North,0,0.0,0.0,88,0.00,,,0.00,WUHU216HW,2013-10-08 10:04:00,
2013-10-08 05:09:00,36.4,33.1,30.09,North,0,0.0,0.0,88,0.00,,,0.00,WUHU216HW,2013-10-08 10:09:00,
2013-10-08 05:14:00,36.7,33.5,30.09,North,0,0.0,0.0,88,0.00,,,0.00,WUHU216HW,2013-10-08 10:14:00,
2013-10-08 05:19:00,36.9,33.9,30.09,North,0,0.0,0.0,89,0.00,,,0.00,WUHU216HW,2013-10-08 10:19:00,
2013-10-08 05:24:00,36.9,33.9,30.09,North,0,0.0,0.0,89,0.00,,,0.00,WUHU216HW,2013-10-08 10:24:00,
2013-10-08 05:29:00,36.9,33.7,30.09,North,0,0.0,0.0,88,0.00,,,0.00,WUHU216HW,2013-10-08 10:29:00,
2013-10-08 05:34:00,36.9,33.7,30.09,North,0,0.0,0.0,88,0.00,,,0.00,WUHU216HW,2013-10-08 10:34:00,
2013-10-08 05:39:00,36.9,33.7,30.09,North,0,0.0,0.0,88,0.00,,,0.00,WUHU216HW,2013-10-08 10:39:00,
2013-10-08 05:44:00,37.1,33.9,30.10,North,0,0.0,0.0,88,0.00,,,0.00,WUHU216HW,2013-10-08 10:44:00,
2013-10-08 05:49:00,37.1,33.9,30.10,North,0,0.0,0.0,88,0.00,,,0.00,WUHU216HW,2013-10-08 10:49:00,
2013-10-08 05:54:00,37.1,33.9,30.09,North,0,0.0,0.0,88,0.00,,,0.00,WUHU216HW,2013-10-08 10:54:00,
2013-10-08 05:59:00,36.7,33.5,30.09,North,0,0.0,0.0,88,0.00,,,0.00,WUHU216HW,2013-10-08 10:59:00,
2013-10-08 06:04:00,36.7,33.5,30.10,North,0,0.0,0.0,88,0.00,,,0.00,WUHU216HW,2013-10-08 11:04:00,
2013-10-08 06:09:00,36.7,33.8,30.10,North,0,0.0,0.0,89,0.00,,,0.00,WUHU216HW,2013-10-08 11:09:00,
2013-10-08 06:14:00,36.7,33.8,30.10,North,0,0.0,0.0,89,0.00,,,0.00,WUHU216HW,2013-10-08 11:14:00,
2013-10-08 06:19:00,36.7,33.8,30.10,North,0,0.0,0.0,89,0.00,,,0.00,WUHU216HW,2013-10-08 11:19:00,
2013-10-08 06:24:00,36.9,33.9,30.09,North,0,0.0,0.0,89,0.00,,,0.00,WUHU216HW,2013-10-08 11:24:00,
2013-10-08 06:29:00,37.1,34.1,30.10,North,0,0.0,0.0,89,0.00,,,0.00,WUHU216HW,2013-10-08 11:29:00,
2013-10-08 06:34:00,37.4,34.7,30.09,North,0,0.0,0.0,90,0.00,,,0.00,WUHU216HW,2013-10-08 11:34:00,
2013-10-08 06:39:00,37.6,34.9,30.10,North,0,0.0,0.0,90,0.00,,,0.00,WUHU216HW,2013-10-08 11:39:00,
2013-10-08 06:44:00,37.4,34.7,30.10,North,0,0.0,0.0,90,0.00,,,0.00,WUHU216HW,2013-10-08 11:44:00,
2013-10-08 06:49:00,37.3,34.3,30.10,North,0,0.0,0.0,89,0.00,,,0.00,WUHU216HW,2013-10-08 11:49:00,
2013-10-08 06:54:00,37.3,34.3,30.10,North,0,0.0,0.0,89,0.00,,,0.00,WUHU216HW,2013-10-08 11:54:00,
2013-10-08 06:59:00,37.4,34.5,30.10,North,0,0.0,0.0,89,0.00,,,0.00,WUHU216HW,2013-10-08 11:59:00,
2013-10-08 07:04:00,37.4,34.5,30.10,North,0,0.0,0.0,89,0.00,,,0.00,WUHU216HW,2013-10-08 12:04:00,
2013-10-08 07:09:00,37.3,34.3,30.10,North,0,0.0,0.0,89,0.00,,,0.00,WUHU216HW,2013-10-08 12:09:00,
2013-10-08 07:14:00,37.3,34.3,30.10,North,0,0.0,0.0,89,0.00,,,0.00,WUHU216HW,2013-10-08 12:14:00,
2013-10-08 07:19:00,37.4,34.7,30.11,North,0,0.0,0.0,90,0.00,,,0.00,WUHU216HW,2013-10-08 12:19:00,
2013-10-08 07:24:00,37.6,34.9,30.11,North,0,0.0,0.0,90,0.00,,,0.00,WUHU216HW,2013-10-08 12:24:00,
2013-10-08 07:29:00,37.6,34.9,30.11,North,0,0.0,0.0,90,0.00,,,0.00,WUHU216HW,2013-10-08 12:29:00,
2013-10-08 07:34:00,37.8,35.1,30.11,North,0,0.0,0.0,90,0.00,,,0.00,WUHU216HW,2013-10-08 12:34:00,
2013-10-08 07:39:00,38.2,35.5,30.11,North,0,0.0,0.0,90,0.00,,,0.00,WUHU216HW,2013-10-08 12:39:00,
2013-10-08 07:44:00,38.5,35.8,30.11,North,0,0.0,0.0,90,0.00,,,0.00,WUHU216HW,2013-10-08 12:44:00,
2013-10-08 07:49:00,38.9,36.2,30.11,North,0,0.0,0.0,90,0.00,,,0.00,WUHU216HW,2013-10-08 12:49:00,
2013-10-08 07:54:00,40.1,37.4,30.12,North,0,0.0,0.0,90,0.00,,,0.00,WUHU216HW,2013-10-08 12:54:00,
2013-10-08 07:59:00,46.1,42.8,30.12,North,0,0.0,0.0,88,0.00,,,0.00,WUHU216HW,2013-10-08 12:59:00,
2013-10-08 08:04:00,44.3,40.7,30.12,North,0,0.0,0.0,87,0.00,,,0.00,WUHU216HW,2013-10-08 13:04:00,
2013-10-08 08:09:00,44.1,40.8,30.12,North,0,0.0,0.0,88,0.00,,,0.00,WUHU216HW,2013-10-08 13:09:00,
2013-10-08 08:14:00,43.9,40.6,30.12,North,0,0.0,0.0,88,0.00,,,0.00,WUHU216HW,2013-10-08 13:14:00,
2013-10-08 08:19:00,44.1,41.1,30.12,North,0,0.0,0.0,89,0.00,,,0.00,WUHU216HW,2013-10-08 13:19:00,
2013-10-08 08:24:00,44.3,41.0,30.12,North,0,0.0,0.0,88,0.00,,,0.00,WUHU216HW,2013-10-08 13:24:00,
2013-10-08 08:29:00,44.8,42.1,30.12,North,0,0.0,0.0,90,0.00,,,0.00,WUHU216HW,2013-10-08 13:29:00,
2013-10-08 08:34:00,45.2,42.5,30.12,North,0,0.0,0.0,90,0.00,,,0.00,WUHU216HW,2013-10-08 13:34:00,
2013-10-08 08:39:00,45.7,43.0,30.12,North,0,0.0,0.0,90,0.00,,,0.00,WUHU216HW,2013-10-08 13:39:00,
2013-10-08 08:44:00,46.1,43.4,30.12,North,0,0.0,0.0,90,0.00,,,0.00,WUHU216HW,2013-10-08 13:44:00,
2013-10-08 08:49:00,46.8,44.1,30.12,North,0,0.0,0.0,90,0.00,,,0.00,WUHU216HW,2013-10-08 13:49:00,
2013-10-08 08:54:00,47.5,44.8,30.12,North,0,0.0,0.0,90,0.00,,,0.00,WUHU216HW,2013-10-08 13:54:00,
2013-10-08 08:59:00,48.4,45.4,30.12,North,0,0.0,0.0,89,0.00,,,0.00,WUHU216HW,2013-10-08 13:59:00,
2013-10-08 09:04:00,49.1,46.1,30.13,North,0,0.0,0.0,89,0.00,,,0.00,WUHU216HW,2013-10-08 14:04:00,
2013-10-08 09:09:00,50.0,46.9,30.12,North,0,0.0,0.0,89,0.00,,,0.00,WUHU216HW,2013-10-08 14:09:00,
2013-10-08 09:14:00,50.8,47.3,30.12,North,0,0.0,0.0,88,0.00,,,0.00,WUHU216HW,2013-10-08 14:14:00,
2013-10-08 09:19:00,51.7,48.2,30.12,North,0,0.0,0.0,88,0.00,,,0.00,WUHU216HW,2013-10-08 14:19:00,
2013-10-08 09:24:00,52.7,48.6,30.12,North,0,0.0,0.0,86,0.00,,,0.00,WUHU216HW,2013-10-08 14:24:00,
2013-10-08 09:29:00,53.3,48.9,30.12,North,0,0.0,0.0,85,0.00,,,0.00,WUHU216HW,2013-10-08 14:29:00,
2013-10-08 09:34:00,54.0,49.2,30.12,North,0,0.0,0.0,84,0.00,,,0.00,WUHU216HW,2013-10-08 14:34:00,
2013-10-08 09:39:00,54.7,49.3,30.12,North,0,0.0,0.0,82,0.00,,,0.00,WUHU216HW,2013-10-08 14:39:00,
2013-10-08 09:44:00,55.4,49.7,30.12,North,0,0.0,0.0,81,0.00,,,0.00,WUHU216HW,2013-10-08 14:44:00,
2013-10-08 09:49:00,56.3,50.2,30.12,North,0,0.0,0.0,80,0.00,,,0.00,WUHU216HW,2013-10-08 14:49:00,
2013-10-08 09:54:00,56.9,50.0,30.12,North,0,0.0,0.0,78,0.00,,,0.00,WUHU216HW,2013-10-08 14:54:00,
2013-10-08 09:59:00,57.4,49.1,30.12,North,0,0.0,0.0,74,0.00,,,0.00,WUHU216HW,2013-10-08 14:59:00,
2013-10-08 10:04:00,58.1,49.1,30.12,North,0,0.0,0.0,72,0.00,,,0.00,WUHU216HW,2013-10-08 15:04:00,
2013-10-08 10:09:00,58.9,49.1,30.12,North,0,0.0,0.0,70,0.00,,,0.00,WUHU216HW,2013-10-08 15:09:00,
2013-10-08 10:14:00,59.6,50.6,30.12,North,0,0.0,0.0,72,0.00,,,0.00,WUHU216HW,2013-10-08 15:14:00,
2013-10-08 10:19:00,60.1,49.1,30.12,North,0,0.0,0.0,67,0.00,,,0.00,WUHU216HW,2013-10-08 15:19:00,
2013-10-08 10:24:00,60.8,50.7,30.11,North,0,0.0,0.0,69,0.00,,,0.00,WUHU216HW,2013-10-08 15:24:00,
2013-10-08 10:29:00,61.4,50.4,30.12,North,0,0.0,0.0,67,0.00,,,0.00,WUHU216HW,2013-10-08 15:29:00,
2013-10-08 10:34:00,62.1,51.4,30.12,North,0,0.0,0.0,68,0.00,,,0.00,WUHU216HW,2013-10-08 15:34:00,
2013-10-08 10:39:00,62.6,52.3,30.12,North,0,0.0,0.0,69,0.00,,,0.00,WUHU216HW,2013-10-08 15:39:00,
2013-10-08 10:44:00,63.4,52.7,30.11,North,0,0.0,0.0,68,0.00,,,0.00,WUHU216HW,2013-10-08 15:44:00,
2013-10-08 10:49:00,64.1,52.5,30.11,North,0,0.0,0.0,66,0.00,,,0.00,WUHU216HW,2013-10-08 15:49:00,
2013-10-08 10:54:00,64.4,51.1,30.11,North,0,0.0,0.0,62,0.00,,,0.00,WUHU216HW,2013-10-08 15:54:00,
2013-10-08 10:59:00,65.2,53.1,30.12,North,0,0.0,0.0,65,0.00,,,0.00,WUHU216HW,2013-10-08 15:59:00,
2013-10-08 11:04:00,65.7,52.3,30.12,North,0,0.0,0.0,62,0.00,,,0.00,WUHU216HW,2013-10-08 16:04:00,
2013-10-08 11:09:00,66.1,50.9,30.12,North,0,0.0,0.0,58,0.00,,,0.00,WUHU216HW,2013-10-08 16:09:00,
2013-10-08 11:14:00,66.6,51.8,30.11,North,0,0.0,0.0,59,0.00,,,0.00,WUHU216HW,2013-10-08 16:14:00,
2013-10-08 11:19:00,67.3,52.0,30.11,North,0,0.0,0.0,58,0.00,,,0.00,WUHU216HW,2013-10-08 16:19:00,
2013-10-08 11:24:00,67.5,52.2,30.12,North,0,0.0,0.0,58,0.00,,,0.00,WUHU216HW,2013-10-08 16:24:00,
2013-10-08 11:29:00,68.2,53.4,30.11,North,0,0.0,0.0,59,0.00,,,0.00,WUHU216HW,2013-10-08 16:29:00,
2013-10-08 11:34:00,68.8,51.9,30.11,North,0,0.0,0.0,55,0.00,,,0.00,WUHU216HW,2013-10-08 16:34:00,
2013-10-08 11:39:00,69.1,52.2,30.12,North,0,0.0,0.0,55,0.00,,,0.00,WUHU216HW,2013-10-08 16:39:00,
2013-10-08 11:44:00,69.5,52.1,30.12,North,0,0.0,0.0,54,0.00,,,0.00,WUHU216HW,2013-10-08 16:44:00,
2013-10-08 11:49:00,70.0,52.1,30.11,North,0,0.0,0.0,53,0.00,,,0.00,WUHU216HW,2013-10-08 16:49:00,
2013-10-08 11:54:00,70.6,52.6,30.11,North,0,0.0,0.0,53,0.00,,,0.00,WUHU216HW,2013-10-08 16:54:00,
2013-10-08 11:59:00,70.9,51.8,30.11,North,0,0.0,0.0,51,0.00,,,0.00,WUHU216HW,2013-10-08 16:59:00,
2013-10-08 12:04:00,71.5,53.4,30.11,North,0,0.0,0.0,53,0.00,,,0.00,WUHU216HW,2013-10-08 17:04:00,
2013-10-08 12:05:00,71.6,54.0,30.11,North,0,0.0,0.0,54,0.00,,,0.00,WUHU216HW,2013-10-08 17:05:00,
2013-10-08 12:10:00,72.5,52.2,30.11,North,0,0.0,0.0,49,0.00,,,0.00,WUHU216HW,2013-10-08 17:10:00,
2013-10-08 12:15:00,72.5,52.2,30.10,North,0,0.0,0.0,49,0.00,,,0.00,WUHU216HW,2013-10-08 17:15:00,
2013-10-08 12:20:00,72.7,51.2,30.10,North,0,0.0,0.0,47,0.00,,,0.00,WUHU216HW,2013-10-08 17:20:00,
2013-10-08 12:25:00,73.1,50.3,30.10,North,0,0.0,0.0,45,0.00,,,0.00,WUHU216HW,2013-10-08 17:25:00,
2013-10-08 12:30:00,73.4,51.3,30.10,North,0,0.0,0.0,46,0.00,,,0.00,WUHU216HW,2013-10-08 17:30:00,
2013-10-08 12:35:00,74.5,52.9,30.10,North,0,0.0,0.0,47,0.00,,,0.00,WUHU216HW,2013-10-08 17:35:00,
2013-10-08 12:40:00,74.9,50.2,30.10,North,0,0.0,0.0,42,0.00,,,0.00,WUHU216HW,2013-10-08 17:40:00,
2013-10-08 12:45:00,75.4,51.3,30.10,North,0,0.0,0.0,43,0.00,,,0.00,WUHU216HW,2013-10-08 17:45:00,
2013-10-08 12:50:00,76.0,50.6,30.10,North,0,0.0,0.0,41,0.00,,,0.00,WUHU216HW,2013-10-08 17:50:00,
2013-10-08 12:55:00,76.3,49.5,30.10,North,0,0.0,0.0,39,0.00,,,0.00,WUHU216HW,2013-10-08 17:55:00,
2013-10-08 13:00:00,76.0,51.2,30.10,North,0,0.0,0.0,42,0.00,,,0.00,WUHU216HW,2013-10-08 18:00:00,
2013-10-08 13:05:00,76.5,49.7,30.10,North,0,0.0,0.0,39,0.00,,,0.00,WUHU216HW,2013-10-08 18:05:00,
2013-10-08 13:10:00,76.9,52.0,30.09,North,0,0.0,0.0,42,0.00,,,0.00,WUHU216HW,2013-10-08 18:10:00,
2013-10-08 13:15:00,77.6,51.4,30.09,North,0,0.0,0.0,40,0.00,,,0.00,WUHU216HW,2013-10-08 18:15:00,
2013-10-08 13:20:00,78.3,52.1,30.09,North,0,0.0,0.0,40,0.00,,,0.00,WUHU216HW,2013-10-08 18:20:00,
2013-10-08 13:25:00,79.0,51.9,30.09,North,0,0.0,0.0,39,0.00,,,0.00,WUHU216HW,2013-10-08 18:25:00,
2013-10-08 13:30:00,78.8,51.8,30.09,North,0,0.0,0.0,39,0.00,,,0.00,WUHU216HW,2013-10-08 18:30:00,
2013-10-08 13:35:00,79.6,53.2,30.08,North,0,0.0,0.0,40,0.00,,,0.00,WUHU216HW,2013-10-08 18:35:00,
2013-10-08 13:40:00,79.2,51.3,30.09,North,0,0.0,0.0,38,0.00,,,0.00,WUHU216HW,2013-10-08 18:40:00,
2013-10-08 13:45:00,79.6,48.6,30.08,North,0,0.0,0.0,34,0.00,,,0.00,WUHU216HW,2013-10-08 18:45:00,
2013-10-08 13:50:00,79.9,48.9,30.08,North,0,0.0,0.0,34,0.00,,,0.00,WUHU216HW,2013-10-08 18:50:00,
2013-10-08 13:54:00,79.7,48.0,30.08,North,0,0.0,0.0,33,0.00,,,0.00,WUHU216HW,2013-10-08 18:54:00,
2013-10-08 13:59:00,81.2,50.8,30.08,North,0,0.0,0.0,35,0.00,,,0.00,WUHU216HW,2013-10-08 18:59:00,
2013-10-08 14:04:00,81.0,49.1,30.07,North,0,0.0,0.0,33,0.00,,,0.00,WUHU216HW,2013-10-08 19:04:00,
2013-10-08 14:09:00,80.5,48.6,30.07,North,0,0.0,0.0,33,0.00,,,0.00,WUHU216HW,2013-10-08 19:09:00,
2013-10-08 14:14:00,79.9,47.3,30.07,North,0,0.0,0.0,32,0.00,,,0.00,WUHU216HW,2013-10-08 19:14:00,
2013-10-08 14:19:00,79.2,46.7,30.07,North,0,0.0,0.0,32,0.00,,,0.00,WUHU216HW,2013-10-08 19:19:00,
2013-10-08 14:24:00,79.4,47.6,30.07,North,0,0.0,0.0,33,0.00,,,0.00,WUHU216HW,2013-10-08 19:24:00,
2013-10-08 14:29:00,80.1,48.2,30.07,North,0,0.0,0.0,33,0.00,,,0.00,WUHU216HW,2013-10-08 19:29:00,
2013-10-08 14:34:00,80.5,47.8,30.07,North,0,0.0,0.0,32,0.00,,,0.00,WUHU216HW,2013-10-08 19:34:00,
2013-10-08 14:39:00,80.1,47.5,30.07,North,0,0.0,0.0,32,0.00,,,0.00,WUHU216HW,2013-10-08 19:39:00,
2013-10-08 14:44:00,80.3,47.7,30.07,North,0,0.0,0.0,32,0.00,,,0.00,WUHU216HW,2013-10-08 19:44:00,
2013-10-08 14:49:00,80.5,47.8,30.07,North,0,0.0,0.0,32,0.00,,,0.00,WUHU216HW,2013-10-08 19:49:00,
2013-10-08 14:54:00,81.4,48.6,30.07,North,0,0.0,0.0,32,0.00,,,0.00,WUHU216HW,2013-10-08 19:54:00,
2013-10-08 14:59:00,81.0,46.7,30.07,North,0,0.0,0.0,30,0.00,,,0.00,WUHU216HW,2013-10-08 19:59:00,
2013-10-08 15:05:00,81.7,47.4,30.07,North,0,0.0,0.0,30,0.00,,,0.00,WUHU216HW,2013-10-08 20:05:00,
2013-10-08 15:10:00,81.4,47.8,30.06,North,0,0.0,0.0,31,0.00,,,0.00,WUHU216HW,2013-10-08 20:10:00,
2013-10-08 15:15:00,81.5,47.2,30.07,North,0,0.0,0.0,30,0.00,,,0.00,WUHU216HW,2013-10-08 20:15:00,
2013-10-08 15:20:00,81.9,46.5,30.07,North,0,0.0,0.0,29,0.00,,,0.00,WUHU216HW,2013-10-08 20:20:00,
2013-10-08 15:25:00,82.1,47.6,30.07,North,0,0.0,0.0,30,0.00,,,0.00,WUHU216HW,2013-10-08 20:25:00,
2013-10-08 15:30:00,83.0,47.4,30.07,North,0,0.0,0.0,29,0.00,,,0.00,WUHU216HW,2013-10-08 20:30:00,
2013-10-08 15:34:00,83.0,49.1,30.07,North,0,0.0,0.0,31,0.00,,,0.00,WUHU216HW,2013-10-08 20:34:00,
2013-10-08 15:39:00,82.8,47.2,30.07,North,0,0.0,0.0,29,0.00,,,0.00,WUHU216HW,2013-10-08 20:39:00,
2013-10-08 15:44:00,83.2,47.5,30.07,North,0,0.0,0.0,29,0.00,,,0.00,WUHU216HW,2013-10-08 20:44:00,
2013-10-08 15:49:00,83.2,47.5,30.07,North,0,0.0,0.0,29,0.00,,,0.00,WUHU216HW,2013-10-08 20:49:00,
2013-10-08 15:54:00,83.0,48.3,30.07,North,0,0.0,0.0,30,0.00,,,0.00,WUHU216HW,2013-10-08 20:54:00,
2013-10-08 15:59:00,82.6,47.0,30.07,North,0,0.0,0.0,29,0.00,,,0.00,WUHU216HW,2013-10-08 20:59:00,
2013-10-08 16:04:00,82.4,46.8,30.07,North,0,0.0,0.0,29,0.00,,,0.00,WUHU216HW,2013-10-08 21:04:00,
2013-10-08 16:09:00,83.2,48.5,30.07,North,0,0.0,0.0,30,0.00,,,0.00,WUHU216HW,2013-10-08 21:09:00,
2013-10-08 16:14:00,83.2,48.5,30.07,North,0,0.0,0.0,30,0.00,,,0.00,WUHU216HW,2013-10-08 21:14:00,
2013-10-08 16:19:00,83.2,46.5,30.07,North,0,0.0,0.0,28,0.00,,,0.00,WUHU216HW,2013-10-08 21:19:00,
2013-10-08 16:24:00,81.7,46.3,30.07,North,0,0.0,0.0,29,0.00,,,0.00,WUHU216HW,2013-10-08 21:24:00,
2013-10-08 16:29:00,81.4,44.9,30.07,North,0,0.0,0.0,28,0.00,,,0.00,WUHU216HW,2013-10-08 21:29:00,
2013-10-08 16:34:00,79.6,45.5,30.07,North,0,0.0,0.0,30,0.00,,,0.00,WUHU216HW,2013-10-08 21:34:00,
2013-10-08 16:39:00,77.0,44.9,30.07,North,0,0.0,0.0,32,0.00,,,0.00,WUHU216HW,2013-10-08 21:39:00,
2013-10-08 16:44:00,75.8,45.3,30.06,North,0,0.0,0.0,34,0.00,,,0.00,WUHU216HW,2013-10-08 21:44:00,
2013-10-08 16:49:00,75.2,45.5,30.06,North,0,0.0,0.0,35,0.00,,,0.00,WUHU216HW,2013-10-08 21:49:00,
2013-10-08 16:54:00,74.5,44.9,30.06,North,0,0.0,0.0,35,0.00,,,0.00,WUHU216HW,2013-10-08 21:54:00,
2013-10-08 16:59:00,74.2,46.1,30.06,North,0,0.0,0.0,37,0.00,,,0.00,WUHU216HW,2013-10-08 21:59:00,
2013-10-08 17:04:00,73.6,45.6,30.06,North,0,0.0,0.0,37,0.00,,,0.00,WUHU216HW,2013-10-08 22:04:00,
2013-10-08 17:09:00,73.3,46.0,30.06,North,0,0.0,0.0,38,0.00,,,0.00,WUHU216HW,2013-10-08 22:09:00,
2013-10-08 17:14:00,72.5,46.2,30.06,North,0,0.0,0.0,39,0.00,,,0.00,WUHU216HW,2013-10-08 22:14:00,
2013-10-08 17:19:00,72.0,46.5,30.06,North,0,0.0,0.0,40,0.00,,,0.00,WUHU216HW,2013-10-08 22:19:00,
2013-10-08 17:24:00,71.3,45.7,30.06,North,0,0.0,0.0,40,0.00,,,0.00,WUHU216HW,2013-10-08 22:24:00,
2013-10-08 17:29:00,70.9,46.0,30.06,North,0,0.0,0.0,41,0.00,,,0.00,WUHU216HW,2013-10-08 22:29:00,
2013-10-08 17:34:00,70.4,46.2,30.06,North,0,0.0,0.0,42,0.00,,,0.00,WUHU216HW,2013-10-08 22:34:00,
2013-10-08 17:39:00,69.8,45.6,30.06,North,0,0.0,0.0,42,0.00,,,0.00,WUHU216HW,2013-10-08 22:39:00,
2013-10-08 17:44:00,69.5,45.9,30.06,North,0,0.0,0.0,43,0.00,,,0.00,WUHU216HW,2013-10-08 22:44:00,
2013-10-08 17:49:00,69.1,46.2,30.06,North,0,0.0,0.0,44,0.00,,,0.00,WUHU216HW,2013-10-08 22:49:00,
2013-10-08 17:54:00,68.8,45.3,30.06,North,0,0.0,0.0,43,0.00,,,0.00,WUHU216HW,2013-10-08 22:54:00,
2013-10-08 17:59:00,68.4,45.5,30.06,North,0,0.0,0.0,44,0.00,,,0.00,WUHU216HW,2013-10-08 22:59:00,
2013-10-08 18:04:00,67.7,44.9,30.06,North,0,0.0,0.0,44,0.00,,,0.00,WUHU216HW,2013-10-08 23:04:00,
2013-10-08 18:09:00,67.0,44.8,30.06,North,0,0.0,0.0,45,0.00,,,0.00,WUHU216HW,2013-10-08 23:09:00,
2013-10-08 18:14:00,66.4,44.4,30.06,North,0,0.0,0.0,45,0.00,,,0.00,WUHU216HW,2013-10-08 23:14:00,
2013-10-08 18:19:00,65.9,44.5,30.06,North,0,0.0,0.0,46,0.00,,,0.00,WUHU216HW,2013-10-08 23:19:00,
2013-10-08 18:24:00,65.2,44.4,30.06,North,0,0.0,0.0,47,0.00,,,0.00,WUHU216HW,2013-10-08 23:24:00,
2013-10-08 18:29:00,64.8,44.6,30.06,North,0,0.0,0.0,48,0.00,,,0.00,WUHU216HW,2013-10-08 23:29:00,
2013-10-08 18:34:00,64.3,44.7,30.06,North,0,0.0,0.0,49,0.00,,,0.00,WUHU216HW,2013-10-08 23:34:00,
2013-10-08 18:39:00,63.7,44.1,30.06,North,0,0.0,0.0,49,0.00,,,0.00,WUHU216HW,2013-10-08 23:39:00,
2013-10-08 18:44:00,63.4,44.9,30.06,North,0,0.0,0.0,51,0.00,,,0.00,WUHU216HW,2013-10-08 23:44:00,
2013-10-08 18:49:00,63.2,44.2,30.07,North,0,0.0,0.0,50,0.00,,,0.00,WUHU216HW,2013-10-08 23:49:00,
2013-10-08 18:54:00,62.8,43.9,30.07,North,0,0.0,0.0,50,0.00,,,0.00,WUHU216HW,2013-10-08 23:54:00,
2013-10-08 18:59:00,62.1,43.7,30.07,North,0,0.0,0.0,51,0.00,,,0.00,WUHU216HW,2013-10-08 23:59:00,
2013-10-08 19:04:00,61.2,43.4,30.07,North,0,0.0,0.0,52,0.00,,,0.00,WUHU216HW,2013-10-09 00:04:00,
2013-10-08 19:09:00,60.8,43.1,30.07,North,0,0.0,0.0,52,0.00,,,0.00,WUHU216HW,2013-10-09 00:09:00,
2013-10-08 19:14:00,60.3,43.6,30.07,North,0,0.0,0.0,54,0.00,,,0.00,WUHU216HW,2013-10-09 00:14:00,
2013-10-08 19:19:00,59.8,43.6,30.07,North,0,0.0,0.0,55,0.00,,,0.00,WUHU216HW,2013-10-09 00:19:00,
2013-10-08 19:24:00,59.0,42.8,30.07,North,0,0.0,0.0,55,0.00,,,0.00,WUHU216HW,2013-10-09 00:24:00,
2013-10-08 19:29:00,58.5,43.3,30.07,North,0,0.0,0.0,57,0.00,,,0.00,WUHU216HW,2013-10-09 00:29:00,
2013-10-08 19:34:00,58.7,43.5,30.07,North,0,0.0,0.0,57,0.00,,,0.00,WUHU216HW,2013-10-09 00:34:00,
2013-10-08 19:39:00,58.5,43.3,30.07,North,0,0.0,0.0,57,0.00,,,0.00,WUHU216HW,2013-10-09 00:39:00,
2013-10-08 19:44:00,58.3,43.1,30.07,North,0,0.0,0.0,57,0.00,,,0.00,WUHU216HW,2013-10-09 00:44:00,
2013-10-08 19:49:00,58.1,42.9,30.07,North,0,0.0,0.0,57,0.00,,,0.00,WUHU216HW,2013-10-09 00:49:00,
2013-10-08 19:54:00,58.0,42.9,30.07,North,0,0.0,0.0,57,0.00,,,0.00,WUHU216HW,2013-10-09 00:54:00,
2013-10-08 19:59:00,58.0,43.3,30.07,North,0,0.0,0.0,58,0.00,,,0.00,WUHU216HW,2013-10-09 00:59:00,
2013-10-08 20:04:00,58.0,43.3,30.07,North,0,0.0,0.0,58,0.00,,,0.00,WUHU216HW,2013-10-09 01:04:00,
2013-10-08 20:09:00,58.7,43.9,30.07,North,0,0.0,0.0,58,0.00,,,0.00,WUHU216HW,2013-10-09 01:09:00,
2013-10-08 20:14:00,58.7,43.9,30.08,North,0,0.0,0.0,58,0.00,,,0.00,WUHU216HW,2013-10-09 01:14:00,
2013-10-08 20:19:00,58.7,43.9,30.08,North,0,0.0,0.0,58,0.00,,,0.00,WUHU216HW,2013-10-09 01:19:00,
2013-10-08 20:24:00,58.5,43.7,30.08,North,0,0.0,0.0,58,0.00,,,0.00,WUHU216HW,2013-10-09 01:24:00,
2013-10-08 20:29:00,58.5,43.7,30.08,North,0,0.0,0.0,58,0.00,,,0.00,WUHU216HW,2013-10-09 01:29:00,
2013-10-08 20:34:00,58.7,43.9,30.08,North,0,0.0,0.0,58,0.00,,,0.00,WUHU216HW,2013-10-09 01:34:00,
2013-10-08 20:39:00,58.7,43.9,30.08,North,0,0.0,0.0,58,0.00,,,0.00,WUHU216HW,2013-10-09 01:39:00,
2013-10-08 20:44:00,59.0,44.7,30.08,North,0,0.0,0.0,59,0.00,,,0.00,WUHU216HW,2013-10-09 01:44:00,
2013-10-08 20:49:00,58.9,44.1,30.08,North,0,0.0,0.0,58,0.00,,,0.00,WUHU216HW,2013-10-09 01:49:00,
2013-10-08 20:54:00,59.2,45.4,30.09,North,0,0.0,0.0,60,0.00,,,0.00,WUHU216HW,2013-10-09 01:54:00,
2013-10-08 20:59:00,59.4,45.5,30.09,North,0,0.0,0.0,60,0.00,,,0.00,WUHU216HW,2013-10-09 01:59:00,
2013-10-08 21:04:00,59.4,45.5,30.09,North,0,0.0,0.0,60,0.00,,,0.00,WUHU216HW,2013-10-09 02:04:00,
2013-10-08 21:09:00,59.0,44.7,30.09,North,0,0.0,0.0,59,0.00,,,0.00,WUHU216HW,2013-10-09 02:09:00,
2013-10-08 21:14:00,58.9,44.1,30.09,North,0,0.0,0.0,58,0.00,,,0.00,WUHU216HW,2013-10-09 02:14:00,
2013-10-08 21:19:00,58.7,44.4,30.09,North,0,0.0,0.0,59,0.00,,,0.00,WUHU216HW,2013-10-09 02:19:00,
2013-10-08 21:24:00,58.1,43.9,30.09,North,0,0.0,0.0,59,0.00,,,0.00,WUHU216HW,2013-10-09 02:24:00,
2013-10-08 21:29:00,57.6,43.9,30.09,North,0,0.0,0.0,60,0.00,,,0.00,WUHU216HW,2013-10-09 02:29:00,
2013-10-08 21:34:00,57.4,43.8,30.09,North,0,0.0,0.0,60,0.00,,,0.00,WUHU216HW,2013-10-09 02:34:00,
2013-10-08 21:39:00,57.2,43.9,30.09,North,0,0.0,0.0,61,0.00,,,0.00,WUHU216HW,2013-10-09 02:39:00,
2013-10-08 21:44:00,57.2,43.9,30.10,North,0,0.0,0.0,61,0.00,,,0.00,WUHU216HW,2013-10-09 02:44:00,
2013-10-08 21:49:00,57.1,43.7,30.09,North,0,0.0,0.0,61,0.00,,,0.00,WUHU216HW,2013-10-09 02:49:00,
2013-10-08 21:54:00,56.5,43.2,30.10,North,0,0.0,0.0,61,0.00,,,0.00,WUHU216HW,2013-10-09 02:54:00,
2013-10-08 21:59:00,56.2,43.3,30.10,North,0,0.0,0.0,62,0.00,,,0.00,WUHU216HW,2013-10-09 02:59:00,
2013-10-08 22:04:00,55.8,42.9,30.10,North,0,0.0,0.0,62,0.00,,,0.00,WUHU216HW,2013-10-09 03:04:00,
2013-10-08 22:09:00,55.3,43.3,30.10,North,0,0.0,0.0,64,0.00,,,0.00,WUHU216HW,2013-10-09 03:09:00,
2013-10-08 22:14:00,55.1,43.1,30.10,North,0,0.0,0.0,64,0.00,,,0.00,WUHU216HW,2013-10-09 03:14:00,
2013-10-08 22:19:00,54.5,42.6,30.10,North,0,0.0,0.0,64,0.00,,,0.00,WUHU216HW,2013-10-09 03:19:00,
2013-10-08 22:24:00,54.2,42.7,30.10,North,0,0.0,0.0,65,0.00,,,0.00,WUHU216HW,2013-10-09 03:24:00,
2013-10-08 22:29:00,53.6,42.1,30.10,North,0,0.0,0.0,65,0.00,,,0.00,WUHU216HW,2013-10-09 03:29:00,
2013-10-08 22:34:00,53.3,42.2,30.10,North,0,0.0,0.0,66,0.00,,,0.00,WUHU216HW,2013-10-09 03:34:00,
2013-10-08 22:39:00,52.7,42.5,30.10,North,0,0.0,0.0,68,0.00,,,0.00,WUHU216HW,2013-10-09 03:39:00,
2013-10-08 22:44:00,52.2,41.9,30.10,North,0,0.0,0.0,68,0.00,,,0.00,WUHU216HW,2013-10-09 03:44:00,
2013-10-08 22:49:00,51.5,41.7,30.10,North,0,0.0,0.0,69,0.00,,,0.00,WUHU216HW,2013-10-09 03:49:00,
2013-10-08 22:54:00,51.5,42.5,30.10,North,0,0.0,0.0,71,0.00,,,0.00,WUHU216HW,2013-10-09 03:54:00,
2013-10-08 22:59:00,51.3,42.7,30.10,North,0,0.0,0.0,72,0.00,,,0.00,WUHU216HW,2013-10-09 03:59:00,
2013-10-08 23:01:00,51.3,42.7,30.10,North,0,0.0,0.0,72,0.00,,,0.00,WUHU216HW,2013-10-09 04:01:00,
2013-10-08 23:06:00,50.8,41.8,30.10,North,0,0.0,0.0,71,0.00,,,0.00,WUHU216HW,2013-10-09 04:06:00,
2013-10-08 23:11:00,50.2,41.2,30.10,North,0,0.0,0.0,71,0.00,,,0.00,WUHU216HW,2013-10-09 04:11:00,
2013-10-08 23:16:00,49.9,40.9,30.10,North,0,0.0,0.0,71,0.00,,,0.00,WUHU216HW,2013-10-09 04:16:00,
2013-10-08 23:21:00,49.5,40.9,30.10,North,0,0.0,0.0,72,0.00,,,0.00,WUHU216HW,2013-10-09 04:21:00,
2013-10-08 23:26:00,49.3,40.7,30.10,North,0,0.0,0.0,72,0.00,,,0.00,WUHU216HW,2013-10-09 04:26:00,
2013-10-08 23:31:00,49.3,41.0,30.10,North,0,0.0,0.0,73,0.00,,,0.00,WUHU216HW,2013-10-09 04:31:00,
2013-10-08 23:36:00,49.1,40.8,30.10,North,0,0.0,0.0,73,0.00,,,0.00,WUHU216HW,2013-10-09 04:36:00,
2013-10-08 23:41:00,49.0,41.0,30.10,North,0,0.0,0.0,74,0.00,,,0.00,WUHU216HW,2013-10-09 04:41:00,
2013-10-08 23:46:00,49.1,41.1,30.10,North,0,0.0,0.0,74,0.00,,,0.00,WUHU216HW,2013-10-09 04:46:00,
2013-10-08 23:51:00,49.5,41.5,30.10,North,0,0.0,0.0,74,0.00,,,0.00,WUHU216HW,2013-10-09 04:51:00,
2013-10-08 23:56:00,49.9,41.9,30.10,North,0,0.0,0.0,74,0.00,,,0.00,WUHU216HW,2013-10-09 04:56:00,